sensor_id;sensor_type;location;lat;lon;timestamp;P1;durP1;ratioP1;P2;durP2;ratioP2
71353;SDS011;59393;51.652;4.864;2022-09-09T00:02:31;4.95;;;1.67;;
71353;SDS011;59393;51.652;4.864;2022-09-09T00:04:38;4.55;;;1.77;;
71353;SDS011;59393;51.652;4.864;2022-09-09T00:07:16;4.43;;;1.50;;
71353;SDS011;59393;51.652;4.864;2022-09-09T00:12:29;6.88;;;1.90;;
71353;SDS011;59393;51.652;4.864;2022-09-09T00:17:36;8.85;;;2.22;;
71353;SDS011;59393;51.652;4.864;2022-09-09T00:22:40;5.75;;;1.98;;
71353;SDS011;59393;51.652;4.864;2022-09-09T00:25:11;10.88;;;2.30;;
71353;SDS011;59393;51.652;4.864;2022-09-09T00:27:47;8.63;;;2.40;;
71353;SDS011;59393;51.652;4.864;2022-09-09T00:30:22;4.38;;;1.80;;
71353;SDS011;59393;51.652;4.864;2022-09-09T00:32:49;5.30;;;2.23;;
71353;SDS011;59393;51.652;4.864;2022-09-09T00:37:43;7.82;;;2.13;;
71353;SDS011;59393;51.652;4.864;2022-09-09T00:40:24;6.68;;;2.35;;
71353;SDS011;59393;51.652;4.864;2022-09-09T00:43:09;6.35;;;2.90;;
71353;SDS011;59393;51.652;4.864;2022-09-09T00:48:10;10.20;;;2.70;;
71353;SDS011;59393;51.652;4.864;2022-09-09T00:50:52;7.45;;;2.42;;
71353;SDS011;59393;51.652;4.864;2022-09-09T00:53:39;6.15;;;2.20;;
71353;SDS011;59393;51.652;4.864;2022-09-09T00:56:14;12.70;;;2.55;;
71353;SDS011;59393;51.652;4.864;2022-09-09T01:01:27;5.00;;;1.73;;
71353;SDS011;59393;51.652;4.864;2022-09-09T01:03:54;8.68;;;1.70;;
71353;SDS011;59393;51.652;4.864;2022-09-09T01:06:30;6.72;;;2.20;;
71353;SDS011;59393;51.652;4.864;2022-09-09T01:16:44;9.15;;;2.50;;
71353;SDS011;59393;51.652;4.864;2022-09-09T01:19:13;8.00;;;2.40;;
71353;SDS011;59393;51.652;4.864;2022-09-09T01:21:47;5.75;;;2.35;;
71353;SDS011;59393;51.652;4.864;2022-09-09T01:26:51;8.35;;;2.53;;
71353;SDS011;59393;51.652;4.864;2022-09-09T01:29:18;6.30;;;2.17;;
71353;SDS011;59393;51.652;4.864;2022-09-09T01:31:56;10.77;;;2.95;;
71353;SDS011;59393;51.652;4.864;2022-09-09T01:34:25;7.03;;;2.50;;
71353;SDS011;59393;51.652;4.864;2022-09-09T01:39:20;11.07;;;2.72;;
71353;SDS011;59393;51.652;4.864;2022-09-09T01:41:46;9.88;;;2.65;;
71353;SDS011;59393;51.652;4.864;2022-09-09T01:44:12;6.60;;;2.13;;
71353;SDS011;59393;51.652;4.864;2022-09-09T01:46:39;7.63;;;2.80;;
71353;SDS011;59393;51.652;4.864;2022-09-09T01:49:05;5.37;;;2.20;;
71353;SDS011;59393;51.652;4.864;2022-09-09T01:51:32;5.88;;;2.33;;
71353;SDS011;59393;51.652;4.864;2022-09-09T01:53:58;6.25;;;2.50;;
71353;SDS011;59393;51.652;4.864;2022-09-09T01:59:25;5.75;;;2.03;;
71353;SDS011;59393;51.652;4.864;2022-09-09T02:04:41;7.60;;;2.33;;
71353;SDS011;59393;51.652;4.864;2022-09-09T02:07:14;8.60;;;2.35;;
71353;SDS011;59393;51.652;4.864;2022-09-09T02:09:47;6.88;;;2.30;;
71353;SDS011;59393;51.652;4.864;2022-09-09T02:12:16;9.13;;;2.13;;
71353;SDS011;59393;51.652;4.864;2022-09-09T02:14:47;6.43;;;2.07;;
71353;SDS011;59393;51.652;4.864;2022-09-09T02:17:15;8.77;;;2.33;;
71353;SDS011;59393;51.652;4.864;2022-09-09T02:19:44;8.63;;;2.28;;
71353;SDS011;59393;51.652;4.864;2022-09-09T02:22:12;5.47;;;2.20;;
71353;SDS011;59393;51.652;4.864;2022-09-09T02:24:39;6.93;;;2.08;;
71353;SDS011;59393;51.652;4.864;2022-09-09T02:27:06;5.80;;;2.50;;
71353;SDS011;59393;51.652;4.864;2022-09-09T02:29:34;10.00;;;2.78;;
71353;SDS011;59393;51.652;4.864;2022-09-09T02:32:03;6.15;;;2.38;;
71353;SDS011;59393;51.652;4.864;2022-09-09T02:34:30;6.13;;;2.60;;
71353;SDS011;59393;51.652;4.864;2022-09-09T02:36:57;8.45;;;2.38;;
71353;SDS011;59393;51.652;4.864;2022-09-09T02:39:24;8.63;;;2.30;;
71353;SDS011;59393;51.652;4.864;2022-09-09T02:41:50;9.20;;;2.30;;
71353;SDS011;59393;51.652;4.864;2022-09-09T02:44:17;10.27;;;2.50;;
71353;SDS011;59393;51.652;4.864;2022-09-09T02:52:06;7.13;;;2.00;;
71353;SDS011;59393;51.652;4.864;2022-09-09T02:54:37;6.18;;;2.03;;
71353;SDS011;59393;51.652;4.864;2022-09-09T02:59:33;8.23;;;2.17;;
71353;SDS011;59393;51.652;4.864;2022-09-09T03:01:59;8.43;;;1.77;;
71353;SDS011;59393;51.652;4.864;2022-09-09T03:04:26;8.67;;;2.27;;
71353;SDS011;59393;51.652;4.864;2022-09-09T03:06:52;7.03;;;2.30;;
71353;SDS011;59393;51.652;4.864;2022-09-09T03:09:18;7.28;;;2.20;;
71353;SDS011;59393;51.652;4.864;2022-09-09T03:11:44;6.82;;;2.05;;
71353;SDS011;59393;51.652;4.864;2022-09-09T03:14:10;6.40;;;1.70;;
71353;SDS011;59393;51.652;4.864;2022-09-09T03:16:36;5.57;;;2.30;;
71353;SDS011;59393;51.652;4.864;2022-09-09T03:19:02;6.65;;;2.60;;
71353;SDS011;59393;51.652;4.864;2022-09-09T03:21:28;6.82;;;2.00;;
71353;SDS011;59393;51.652;4.864;2022-09-09T03:23:54;5.55;;;1.83;;
71353;SDS011;59393;51.652;4.864;2022-09-09T03:26:22;7.05;;;1.85;;
71353;SDS011;59393;51.652;4.864;2022-09-09T03:28:48;7.27;;;2.03;;
71353;SDS011;59393;51.652;4.864;2022-09-09T03:31:14;10.73;;;3.42;;
71353;SDS011;59393;51.652;4.864;2022-09-09T03:33:40;5.18;;;1.90;;
71353;SDS011;59393;51.652;4.864;2022-09-09T03:36:07;7.32;;;1.60;;
71353;SDS011;59393;51.652;4.864;2022-09-09T03:38:36;7.80;;;2.10;;
71353;SDS011;59393;51.652;4.864;2022-09-09T03:41:02;11.32;;;2.00;;
71353;SDS011;59393;51.652;4.864;2022-09-09T03:43:28;10.48;;;2.30;;
71353;SDS011;59393;51.652;4.864;2022-09-09T03:45:55;11.10;;;2.30;;
71353;SDS011;59393;51.652;4.864;2022-09-09T03:48:22;8.68;;;2.50;;
71353;SDS011;59393;51.652;4.864;2022-09-09T03:50:48;9.63;;;1.90;;
71353;SDS011;59393;51.652;4.864;2022-09-09T03:53:15;7.10;;;1.85;;
71353;SDS011;59393;51.652;4.864;2022-09-09T03:55:49;7.07;;;2.40;;
71353;SDS011;59393;51.652;4.864;2022-09-09T03:58:17;7.75;;;1.92;;
71353;SDS011;59393;51.652;4.864;2022-09-09T04:00:44;7.78;;;1.98;;
71353;SDS011;59393;51.652;4.864;2022-09-09T04:03:18;7.70;;;2.10;;
71353;SDS011;59393;51.652;4.864;2022-09-09T04:05:44;7.63;;;2.15;;
71353;SDS011;59393;51.652;4.864;2022-09-09T04:08:10;8.85;;;2.25;;
71353;SDS011;59393;51.652;4.864;2022-09-09T04:10:36;7.45;;;2.10;;
71353;SDS011;59393;51.652;4.864;2022-09-09T04:13:03;5.45;;;1.67;;
71353;SDS011;59393;51.652;4.864;2022-09-09T04:15:29;8.27;;;2.23;;
71353;SDS011;59393;51.652;4.864;2022-09-09T04:17:55;9.43;;;2.40;;
71353;SDS011;59393;51.652;4.864;2022-09-09T04:20:21;10.77;;;1.85;;
71353;SDS011;59393;51.652;4.864;2022-09-09T04:22:47;8.60;;;2.20;;
71353;SDS011;59393;51.652;4.864;2022-09-09T04:25:13;7.03;;;1.90;;
71353;SDS011;59393;51.652;4.864;2022-09-09T04:27:39;8.73;;;1.90;;
71353;SDS011;59393;51.652;4.864;2022-09-09T04:30:06;11.10;;;2.25;;
71353;SDS011;59393;51.652;4.864;2022-09-09T04:32:33;7.25;;;2.22;;
71353;SDS011;59393;51.652;4.864;2022-09-09T04:34:59;9.70;;;1.98;;
71353;SDS011;59393;51.652;4.864;2022-09-09T04:37:25;10.43;;;2.85;;
71353;SDS011;59393;51.652;4.864;2022-09-09T04:39:51;10.80;;;2.50;;
71353;SDS011;59393;51.652;4.864;2022-09-09T04:42:17;9.60;;;2.45;;
71353;SDS011;59393;51.652;4.864;2022-09-09T04:44:44;8.70;;;2.40;;
71353;SDS011;59393;51.652;4.864;2022-09-09T04:47:10;8.63;;;2.05;;
71353;SDS011;59393;51.652;4.864;2022-09-09T04:49:36;8.00;;;2.30;;
71353;SDS011;59393;51.652;4.864;2022-09-09T04:52:03;7.67;;;1.77;;
71353;SDS011;59393;51.652;4.864;2022-09-09T04:54:29;8.80;;;2.97;;
71353;SDS011;59393;51.652;4.864;2022-09-09T04:56:55;10.15;;;2.15;;
71353;SDS011;59393;51.652;4.864;2022-09-09T04:59:21;5.32;;;1.65;;
71353;SDS011;59393;51.652;4.864;2022-09-09T05:01:48;8.55;;;2.00;;
71353;SDS011;59393;51.652;4.864;2022-09-09T05:04:15;6.17;;;2.20;;
71353;SDS011;59393;51.652;4.864;2022-09-09T05:06:41;8.65;;;2.17;;
71353;SDS011;59393;51.652;4.864;2022-09-09T05:09:07;9.27;;;1.80;;
71353;SDS011;59393;51.652;4.864;2022-09-09T05:11:33;10.27;;;2.47;;
71353;SDS011;59393;51.652;4.864;2022-09-09T05:14:03;12.88;;;2.63;;
71353;SDS011;59393;51.652;4.864;2022-09-09T05:16:29;8.53;;;2.03;;
71353;SDS011;59393;51.652;4.864;2022-09-09T05:18:55;13.60;;;1.88;;
71353;SDS011;59393;51.652;4.864;2022-09-09T05:21:22;5.15;;;1.73;;
71353;SDS011;59393;51.652;4.864;2022-09-09T05:23:50;8.68;;;1.83;;
71353;SDS011;59393;51.652;4.864;2022-09-09T05:26:17;11.05;;;2.33;;
71353;SDS011;59393;51.652;4.864;2022-09-09T05:28:43;9.00;;;1.93;;
71353;SDS011;59393;51.652;4.864;2022-09-09T05:31:10;9.38;;;1.80;;
71353;SDS011;59393;51.652;4.864;2022-09-09T05:33:37;3.90;;;1.05;;
71353;SDS011;59393;51.652;4.864;2022-09-09T05:36:06;10.52;;;2.22;;
71353;SDS011;59393;51.652;4.864;2022-09-09T05:38:33;8.68;;;2.03;;
71353;SDS011;59393;51.652;4.864;2022-09-09T05:40:59;11.07;;;2.53;;
71353;SDS011;59393;51.652;4.864;2022-09-09T05:43:26;7.55;;;2.10;;
71353;SDS011;59393;51.652;4.864;2022-09-09T05:46:25;9.00;;;1.85;;
71353;SDS011;59393;51.652;4.864;2022-09-09T05:48:45;8.63;;;2.65;;
71353;SDS011;59393;51.652;4.864;2022-09-09T05:51:12;8.15;;;2.08;;
71353;SDS011;59393;51.652;4.864;2022-09-09T05:53:40;12.87;;;2.07;;
71353;SDS011;59393;51.652;4.864;2022-09-09T05:56:13;8.60;;;1.95;;
71353;SDS011;59393;51.652;4.864;2022-09-09T05:58:40;11.13;;;2.17;;
71353;SDS011;59393;51.652;4.864;2022-09-09T06:01:12;8.88;;;2.20;;
71353;SDS011;59393;51.652;4.864;2022-09-09T06:03:40;11.27;;;2.20;;
71353;SDS011;59393;51.652;4.864;2022-09-09T06:06:07;14.20;;;2.10;;
71353;SDS011;59393;51.652;4.864;2022-09-09T06:08:34;9.80;;;2.33;;
71353;SDS011;59393;51.652;4.864;2022-09-09T06:11:09;8.13;;;1.58;;
71353;SDS011;59393;51.652;4.864;2022-09-09T06:13:36;9.50;;;2.03;;
71353;SDS011;59393;51.652;4.864;2022-09-09T06:16:04;8.75;;;2.20;;
71353;SDS011;59393;51.652;4.864;2022-09-09T06:18:30;15.43;;;2.10;;
71353;SDS011;59393;51.652;4.864;2022-09-09T06:21:00;10.13;;;2.40;;
71353;SDS011;59393;51.652;4.864;2022-09-09T06:23:29;7.60;;;1.85;;
71353;SDS011;59393;51.652;4.864;2022-09-09T06:26:05;15.50;;;2.78;;
71353;SDS011;59393;51.652;4.864;2022-09-09T06:28:32;10.80;;;2.53;;
71353;SDS011;59393;51.652;4.864;2022-09-09T06:30:58;9.30;;;2.60;;
71353;SDS011;59393;51.652;4.864;2022-09-09T06:33:24;8.30;;;1.63;;
71353;SDS011;59393;51.652;4.864;2022-09-09T06:35:51;11.52;;;1.85;;
71353;SDS011;59393;51.652;4.864;2022-09-09T06:38:18;9.65;;;2.03;;
71353;SDS011;59393;51.652;4.864;2022-09-09T06:40:50;10.25;;;2.30;;
71353;SDS011;59393;51.652;4.864;2022-09-09T06:43:16;8.10;;;2.07;;
71353;SDS011;59393;51.652;4.864;2022-09-09T06:45:42;7.35;;;2.28;;
71353;SDS011;59393;51.652;4.864;2022-09-09T06:48:09;9.93;;;2.50;;
71353;SDS011;59393;51.652;4.864;2022-09-09T06:50:35;9.90;;;2.13;;
71353;SDS011;59393;51.652;4.864;2022-09-09T06:53:01;14.57;;;2.93;;
71353;SDS011;59393;51.652;4.864;2022-09-09T06:55:27;6.40;;;2.15;;
71353;SDS011;59393;51.652;4.864;2022-09-09T06:57:54;10.40;;;2.55;;
71353;SDS011;59393;51.652;4.864;2022-09-09T07:00:20;13.02;;;2.80;;
71353;SDS011;59393;51.652;4.864;2022-09-09T07:02:46;10.10;;;2.27;;
71353;SDS011;59393;51.652;4.864;2022-09-09T07:05:13;9.23;;;2.20;;
71353;SDS011;59393;51.652;4.864;2022-09-09T07:07:40;12.75;;;3.10;;
71353;SDS011;59393;51.652;4.864;2022-09-09T07:10:06;6.47;;;2.40;;
71353;SDS011;59393;51.652;4.864;2022-09-09T07:12:32;8.93;;;3.00;;
71353;SDS011;59393;51.652;4.864;2022-09-09T07:14:58;10.00;;;3.00;;
71353;SDS011;59393;51.652;4.864;2022-09-09T07:17:25;5.03;;;1.92;;
71353;SDS011;59393;51.652;4.864;2022-09-09T07:19:51;10.57;;;2.28;;
71353;SDS011;59393;51.652;4.864;2022-09-09T07:22:17;12.73;;;2.70;;
71353;SDS011;59393;51.652;4.864;2022-09-09T07:24:45;10.82;;;2.35;;
71353;SDS011;59393;51.652;4.864;2022-09-09T07:27:11;11.03;;;3.07;;
71353;SDS011;59393;51.652;4.864;2022-09-09T07:29:37;5.40;;;1.90;;
71353;SDS011;59393;51.652;4.864;2022-09-09T07:32:03;12.00;;;2.40;;
71353;SDS011;59393;51.652;4.864;2022-09-09T07:34:29;6.82;;;2.00;;
71353;SDS011;59393;51.652;4.864;2022-09-09T07:36:56;7.95;;;2.05;;
71353;SDS011;59393;51.652;4.864;2022-09-09T07:39:22;8.23;;;1.93;;
71353;SDS011;59393;51.652;4.864;2022-09-09T07:41:49;8.95;;;2.55;;
71353;SDS011;59393;51.652;4.864;2022-09-09T07:44:16;7.85;;;2.40;;
71353;SDS011;59393;51.652;4.864;2022-09-09T07:46:43;10.82;;;2.20;;
71353;SDS011;59393;51.652;4.864;2022-09-09T07:49:10;9.40;;;2.88;;
71353;SDS011;59393;51.652;4.864;2022-09-09T07:51:41;8.27;;;2.07;;
71353;SDS011;59393;51.652;4.864;2022-09-09T07:54:08;11.25;;;2.17;;
71353;SDS011;59393;51.652;4.864;2022-09-09T07:56:35;12.98;;;2.75;;
71353;SDS011;59393;51.652;4.864;2022-09-09T07:59:02;12.35;;;2.92;;
71353;SDS011;59393;51.652;4.864;2022-09-09T08:01:32;8.77;;;2.65;;
71353;SDS011;59393;51.652;4.864;2022-09-09T08:04:06;10.97;;;2.50;;
71353;SDS011;59393;51.652;4.864;2022-09-09T08:06:34;10.38;;;2.08;;
71353;SDS011;59393;51.652;4.864;2022-09-09T08:09:00;8.48;;;2.30;;
71353;SDS011;59393;51.652;4.864;2022-09-09T08:11:27;7.65;;;1.98;;
71353;SDS011;59393;51.652;4.864;2022-09-09T08:13:54;9.77;;;2.47;;
71353;SDS011;59393;51.652;4.864;2022-09-09T08:16:21;6.93;;;1.80;;
71353;SDS011;59393;51.652;4.864;2022-09-09T08:18:48;9.10;;;2.10;;
71353;SDS011;59393;51.652;4.864;2022-09-09T08:21:18;15.52;;;2.60;;
71353;SDS011;59393;51.652;4.864;2022-09-09T08:23:46;6.18;;;1.95;;
71353;SDS011;59393;51.652;4.864;2022-09-09T08:26:15;10.13;;;2.17;;
71353;SDS011;59393;51.652;4.864;2022-09-09T08:28:42;7.37;;;2.00;;
71353;SDS011;59393;51.652;4.864;2022-09-09T08:31:13;7.65;;;1.60;;
71353;SDS011;59393;51.652;4.864;2022-09-09T08:33:39;8.98;;;2.10;;
71353;SDS011;59393;51.652;4.864;2022-09-09T08:36:06;5.40;;;1.92;;
71353;SDS011;59393;51.652;4.864;2022-09-09T08:38:33;7.35;;;1.73;;
71353;SDS011;59393;51.652;4.864;2022-09-09T08:43:58;11.05;;;2.03;;
71353;SDS011;59393;51.652;4.864;2022-09-09T08:46:28;10.88;;;2.00;;
71353;SDS011;59393;51.652;4.864;2022-09-09T08:49:05;6.18;;;0.95;;
71353;SDS011;59393;51.652;4.864;2022-09-09T08:51:35;11.65;;;2.30;;
71353;SDS011;59393;51.652;4.864;2022-09-09T08:54:02;7.97;;;1.60;;
71353;SDS011;59393;51.652;4.864;2022-09-09T08:56:28;8.40;;;1.83;;
71353;SDS011;59393;51.652;4.864;2022-09-09T08:58:57;11.48;;;1.65;;
71353;SDS011;59393;51.652;4.864;2022-09-09T09:01:40;7.95;;;1.80;;
71353;SDS011;59393;51.652;4.864;2022-09-09T09:04:17;7.18;;;1.30;;
71353;SDS011;59393;51.652;4.864;2022-09-09T09:09:35;6.78;;;1.70;;
71353;SDS011;59393;51.652;4.864;2022-09-09T09:12:07;9.15;;;1.40;;
71353;SDS011;59393;51.652;4.864;2022-09-09T09:14:36;5.57;;;1.55;;
71353;SDS011;59393;51.652;4.864;2022-09-09T09:17:06;9.75;;;1.80;;
71353;SDS011;59393;51.652;4.864;2022-09-09T09:19:35;6.67;;;1.77;;
71353;SDS011;59393;51.652;4.864;2022-09-09T09:27:33;6.50;;;1.50;;
71353;SDS011;59393;51.652;4.864;2022-09-09T09:30:00;8.68;;;1.60;;
71353;SDS011;59393;51.652;4.864;2022-09-09T09:32:28;10.57;;;1.50;;
71353;SDS011;59393;51.652;4.864;2022-09-09T09:34:56;14.90;;;2.97;;
71353;SDS011;59393;51.652;4.864;2022-09-09T09:37:28;5.75;;;1.50;;
71353;SDS011;59393;51.652;4.864;2022-09-09T09:39:54;7.85;;;1.98;;
71353;SDS011;59393;51.652;4.864;2022-09-09T09:42:21;8.20;;;1.85;;
71353;SDS011;59393;51.652;4.864;2022-09-09T09:44:47;7.00;;;1.70;;
71353;SDS011;59393;51.652;4.864;2022-09-09T09:47:14;8.35;;;1.75;;
71353;SDS011;59393;51.652;4.864;2022-09-09T09:52:23;6.90;;;1.85;;
71353;SDS011;59393;51.652;4.864;2022-09-09T09:54:49;10.77;;;1.70;;
71353;SDS011;59393;51.652;4.864;2022-09-09T09:57:16;7.13;;;2.20;;
71353;SDS011;59393;51.652;4.864;2022-09-09T09:59:43;11.18;;;2.40;;
71353;SDS011;59393;51.652;4.864;2022-09-09T10:04:39;8.70;;;2.03;;
71353;SDS011;59393;51.652;4.864;2022-09-09T10:07:13;8.77;;;1.63;;
71353;SDS011;59393;51.652;4.864;2022-09-09T10:09:42;6.37;;;1.37;;
71353;SDS011;59393;51.652;4.864;2022-09-09T10:14:54;5.75;;;1.70;;
71353;SDS011;59393;51.652;4.864;2022-09-09T10:17:25;7.05;;;1.60;;
71353;SDS011;59393;51.652;4.864;2022-09-09T10:22:27;9.80;;;1.87;;
71353;SDS011;59393;51.652;4.864;2022-09-09T10:27:45;7.13;;;1.80;;
71353;SDS011;59393;51.652;4.864;2022-09-09T10:30:18;5.85;;;1.10;;
71353;SDS011;59393;51.652;4.864;2022-09-09T10:40:42;5.43;;;1.45;;
71353;SDS011;59393;51.652;4.864;2022-09-09T10:43:15;8.35;;;1.77;;
71353;SDS011;59393;51.652;4.864;2022-09-09T10:50:48;8.98;;;1.60;;
71353;SDS011;59393;51.652;4.864;2022-09-09T10:53:22;5.28;;;1.55;;
71353;SDS011;59393;51.652;4.864;2022-09-09T10:55:53;4.60;;;1.58;;
71353;SDS011;59393;51.652;4.864;2022-09-09T11:04:21;9.68;;;3.00;;
71353;SDS011;59393;51.652;4.864;2022-09-09T11:06:49;4.53;;;1.42;;
71353;SDS011;59393;51.652;4.864;2022-09-09T11:09:18;9.95;;;1.67;;
71353;SDS011;59393;51.652;4.864;2022-09-09T11:11:47;7.53;;;1.90;;
71353;SDS011;59393;51.652;4.864;2022-09-09T11:14:18;8.00;;;1.87;;
71353;SDS011;59393;51.652;4.864;2022-09-09T11:16:47;6.72;;;1.80;;
71353;SDS011;59393;51.652;4.864;2022-09-09T11:21:48;7.97;;;2.13;;
71353;SDS011;59393;51.652;4.864;2022-09-09T11:26:57;9.47;;;2.10;;
71353;SDS011;59393;51.652;4.864;2022-09-09T11:31:56;9.15;;;1.75;;
71353;SDS011;59393;51.652;4.864;2022-09-09T11:34:39;8.60;;;2.22;;
71353;SDS011;59393;51.652;4.864;2022-09-09T11:42:22;5.38;;;1.80;;
71353;SDS011;59393;51.652;4.864;2022-09-09T11:44:49;4.35;;;1.63;;
71353;SDS011;59393;51.652;4.864;2022-09-09T11:47:26;7.57;;;1.60;;
71353;SDS011;59393;51.652;4.864;2022-09-09T11:50:09;7.87;;;1.70;;
71353;SDS011;59393;51.652;4.864;2022-09-09T11:52:37;7.15;;;1.40;;
71353;SDS011;59393;51.652;4.864;2022-09-09T11:57:48;7.13;;;1.90;;
71353;SDS011;59393;51.652;4.864;2022-09-09T12:02:55;4.63;;;1.60;;
71353;SDS011;59393;51.652;4.864;2022-09-09T12:05:21;7.47;;;1.65;;
71353;SDS011;59393;51.652;4.864;2022-09-09T12:07:51;8.38;;;2.22;;
71353;SDS011;59393;51.652;4.864;2022-09-09T12:10:31;4.38;;;1.40;;
71353;SDS011;59393;51.652;4.864;2022-09-09T12:13:16;6.20;;;1.75;;
71353;SDS011;59393;51.652;4.864;2022-09-09T12:15:50;9.40;;;2.30;;
71353;SDS011;59393;51.652;4.864;2022-09-09T12:18:51;8.15;;;1.77;;
71353;SDS011;59393;51.652;4.864;2022-09-09T12:24:14;5.25;;;1.83;;
71353;SDS011;59393;51.652;4.864;2022-09-09T12:26:58;5.85;;;1.67;;
71353;SDS011;59393;51.652;4.864;2022-09-09T12:29:41;6.67;;;1.60;;
71353;SDS011;59393;51.652;4.864;2022-09-09T12:32:11;5.22;;;1.38;;
71353;SDS011;59393;51.652;4.864;2022-09-09T12:34:47;4.85;;;1.60;;
71353;SDS011;59393;51.652;4.864;2022-09-09T12:40:05;5.57;;;1.70;;
71353;SDS011;59393;51.652;4.864;2022-09-09T12:42:32;6.00;;;1.37;;
71353;SDS011;59393;51.652;4.864;2022-09-09T12:45:02;7.53;;;1.50;;
71353;SDS011;59393;51.652;4.864;2022-09-09T12:47:48;7.03;;;1.80;;
71353;SDS011;59393;51.652;4.864;2022-09-09T12:50:22;4.28;;;1.20;;
71353;SDS011;59393;51.652;4.864;2022-09-09T12:52:53;8.02;;;1.90;;
71353;SDS011;59393;51.652;4.864;2022-09-09T12:55:20;6.13;;;1.47;;
71353;SDS011;59393;51.652;4.864;2022-09-09T12:57:50;4.93;;;1.20;;
71353;SDS011;59393;51.652;4.864;2022-09-09T13:00:26;10.60;;;1.77;;
71353;SDS011;59393;51.652;4.864;2022-09-09T13:02:54;6.25;;;1.77;;
71353;SDS011;59393;51.652;4.864;2022-09-09T13:05:41;8.05;;;1.65;;
71353;SDS011;59393;51.652;4.864;2022-09-09T13:08:10;4.90;;;1.53;;
71353;SDS011;59393;51.652;4.864;2022-09-09T13:10:41;5.60;;;1.20;;
71353;SDS011;59393;51.652;4.864;2022-09-09T13:13:15;7.57;;;1.58;;
71353;SDS011;59393;51.652;4.864;2022-09-09T13:16:18;4.35;;;1.10;;
71353;SDS011;59393;51.652;4.864;2022-09-09T13:18:35;6.00;;;1.40;;
71353;SDS011;59393;51.652;4.864;2022-09-09T13:21:03;4.10;;;1.27;;
71353;SDS011;59393;51.652;4.864;2022-09-09T13:23:30;5.43;;;1.83;;
71353;SDS011;59393;51.652;4.864;2022-09-09T13:26:19;8.77;;;1.20;;
71353;SDS011;59393;51.652;4.864;2022-09-09T13:28:43;4.72;;;1.63;;
71353;SDS011;59393;51.652;4.864;2022-09-09T13:31:21;4.05;;;1.30;;
71353;SDS011;59393;51.652;4.864;2022-09-09T13:33:48;4.30;;;1.47;;
71353;SDS011;59393;51.652;4.864;2022-09-09T13:36:14;6.45;;;1.38;;
71353;SDS011;59393;51.652;4.864;2022-09-09T13:38:40;4.82;;;1.63;;
71353;SDS011;59393;51.652;4.864;2022-09-09T13:41:19;4.20;;;1.10;;
71353;SDS011;59393;51.652;4.864;2022-09-09T13:43:47;4.10;;;1.13;;
71353;SDS011;59393;51.652;4.864;2022-09-09T13:48:59;3.80;;;1.20;;
71353;SDS011;59393;51.652;4.864;2022-09-09T13:51:35;4.18;;;1.40;;
71353;SDS011;59393;51.652;4.864;2022-09-09T13:54:02;4.97;;;1.30;;
71353;SDS011;59393;51.652;4.864;2022-09-09T13:56:29;4.30;;;1.00;;
71353;SDS011;59393;51.652;4.864;2022-09-09T13:58:56;5.37;;;1.33;;
71353;SDS011;59393;51.652;4.864;2022-09-09T14:01:23;3.40;;;0.95;;
71353;SDS011;59393;51.652;4.864;2022-09-09T14:03:49;4.57;;;1.40;;
71353;SDS011;59393;51.652;4.864;2022-09-09T14:06:16;5.75;;;1.83;;
71353;SDS011;59393;51.652;4.864;2022-09-09T14:08:43;3.85;;;1.15;;
71353;SDS011;59393;51.652;4.864;2022-09-09T14:11:10;4.70;;;1.20;;
71353;SDS011;59393;51.652;4.864;2022-09-09T14:13:38;5.55;;;1.77;;
71353;SDS011;59393;51.652;4.864;2022-09-09T14:16:04;4.60;;;1.63;;
71353;SDS011;59393;51.652;4.864;2022-09-09T14:18:30;3.22;;;1.17;;
71353;SDS011;59393;51.652;4.864;2022-09-09T14:20:56;4.65;;;1.30;;
71353;SDS011;59393;51.652;4.864;2022-09-09T14:23:23;11.57;;;1.30;;
71353;SDS011;59393;51.652;4.864;2022-09-09T14:25:49;6.65;;;1.38;;
71353;SDS011;59393;51.652;4.864;2022-09-09T14:28:16;3.65;;;1.10;;
71353;SDS011;59393;51.652;4.864;2022-09-09T14:30:43;4.82;;;1.10;;
71353;SDS011;59393;51.652;4.864;2022-09-09T14:33:12;2.70;;;1.27;;
71353;SDS011;59393;51.652;4.864;2022-09-09T14:35:39;3.87;;;1.10;;
71353;SDS011;59393;51.652;4.864;2022-09-09T14:38:06;7.00;;;1.20;;
71353;SDS011;59393;51.652;4.864;2022-09-09T14:40:33;3.00;;;1.13;;
71353;SDS011;59393;51.652;4.864;2022-09-09T14:42:59;4.78;;;1.10;;
71353;SDS011;59393;51.652;4.864;2022-09-09T14:45:25;4.47;;;1.50;;
71353;SDS011;59393;51.652;4.864;2022-09-09T14:47:51;3.33;;;1.30;;
71353;SDS011;59393;51.652;4.864;2022-09-09T14:50:18;4.97;;;1.45;;
71353;SDS011;59393;51.652;4.864;2022-09-09T14:52:44;4.15;;;1.30;;
71353;SDS011;59393;51.652;4.864;2022-09-09T14:55:11;5.13;;;1.60;;
71353;SDS011;59393;51.652;4.864;2022-09-09T14:57:37;3.22;;;1.08;;
71353;SDS011;59393;51.652;4.864;2022-09-09T15:00:05;6.53;;;1.53;;
71353;SDS011;59393;51.652;4.864;2022-09-09T15:02:32;4.03;;;1.60;;
71353;SDS011;59393;51.652;4.864;2022-09-09T15:04:58;3.10;;;1.23;;
71353;SDS011;59393;51.652;4.864;2022-09-09T15:07:24;3.00;;;1.20;;
71353;SDS011;59393;51.652;4.864;2022-09-09T15:09:50;3.67;;;1.25;;
71353;SDS011;59393;51.652;4.864;2022-09-09T15:12:16;6.77;;;1.30;;
71353;SDS011;59393;51.652;4.864;2022-09-09T15:14:45;4.70;;;1.30;;
71353;SDS011;59393;51.652;4.864;2022-09-09T15:17:12;6.30;;;1.35;;
71353;SDS011;59393;51.652;4.864;2022-09-09T15:19:38;4.35;;;1.30;;
71353;SDS011;59393;51.652;4.864;2022-09-09T15:22:04;5.90;;;1.23;;
71353;SDS011;59393;51.652;4.864;2022-09-09T15:24:31;5.60;;;1.57;;
71353;SDS011;59393;51.652;4.864;2022-09-09T15:26:57;8.95;;;2.00;;
71353;SDS011;59393;51.652;4.864;2022-09-09T15:29:23;3.85;;;1.05;;
71353;SDS011;59393;51.652;4.864;2022-09-09T15:31:49;4.53;;;1.40;;
71353;SDS011;59393;51.652;4.864;2022-09-09T15:34:15;5.40;;;1.58;;
71353;SDS011;59393;51.652;4.864;2022-09-09T15:36:43;6.70;;;1.10;;
71353;SDS011;59393;51.652;4.864;2022-09-09T15:39:10;4.57;;;1.23;;
71353;SDS011;59393;51.652;4.864;2022-09-09T15:41:37;3.70;;;1.10;;
71353;SDS011;59393;51.652;4.864;2022-09-09T15:44:03;4.47;;;1.05;;
71353;SDS011;59393;51.652;4.864;2022-09-09T15:46:37;3.13;;;0.88;;
71353;SDS011;59393;51.652;4.864;2022-09-09T15:49:08;3.83;;;1.30;;
71353;SDS011;59393;51.652;4.864;2022-09-09T15:51:35;3.90;;;1.05;;
71353;SDS011;59393;51.652;4.864;2022-09-09T15:54:02;3.88;;;0.90;;
71353;SDS011;59393;51.652;4.864;2022-09-09T15:56:28;4.53;;;1.67;;
71353;SDS011;59393;51.652;4.864;2022-09-09T15:58:58;4.13;;;1.40;;
71353;SDS011;59393;51.652;4.864;2022-09-09T16:01:25;4.37;;;1.30;;
71353;SDS011;59393;51.652;4.864;2022-09-09T16:03:52;3.25;;;1.00;;
71353;SDS011;59393;51.652;4.864;2022-09-09T16:06:19;4.53;;;1.40;;
71353;SDS011;59393;51.652;4.864;2022-09-09T16:08:46;4.50;;;1.20;;
71353;SDS011;59393;51.652;4.864;2022-09-09T16:11:19;4.45;;;1.30;;
71353;SDS011;59393;51.652;4.864;2022-09-09T16:13:45;6.30;;;1.77;;
71353;SDS011;59393;51.652;4.864;2022-09-09T16:16:13;4.00;;;1.00;;
71353;SDS011;59393;51.652;4.864;2022-09-09T16:18:43;3.35;;;1.40;;
71353;SDS011;59393;51.652;4.864;2022-09-09T16:21:17;5.00;;;1.20;;
71353;SDS011;59393;51.652;4.864;2022-09-09T16:23:44;4.65;;;1.27;;
71353;SDS011;59393;51.652;4.864;2022-09-09T16:26:11;5.20;;;1.50;;
71353;SDS011;59393;51.652;4.864;2022-09-09T16:28:38;7.50;;;1.35;;
71353;SDS011;59393;51.652;4.864;2022-09-09T16:31:08;5.45;;;1.42;;
71353;SDS011;59393;51.652;4.864;2022-09-09T16:33:35;3.85;;;1.20;;
71353;SDS011;59393;51.652;4.864;2022-09-09T16:36:05;4.30;;;1.52;;
71353;SDS011;59393;51.652;4.864;2022-09-09T16:38:31;4.93;;;1.57;;
71353;SDS011;59393;51.652;4.864;2022-09-09T16:41:01;6.93;;;1.40;;
71353;SDS011;59393;51.652;4.864;2022-09-09T16:43:27;5.47;;;1.50;;
71353;SDS011;59393;51.652;4.864;2022-09-09T16:45:53;7.50;;;1.40;;
71353;SDS011;59393;51.652;4.864;2022-09-09T16:48:19;5.32;;;1.40;;